Time;durP1;ratioP1;P1;durP2;ratioP2;P2;SDS_P1;SDS_P2;PMS_P1;PMS_P2;Temp;Humidity;BMP_temperature;BMP_pressure;BME280_temperature;BME280_humidity;BME280_pressure;Samples;Min_cycle;Max_cycle;Signal;HPM_P1;HPM_P2
2022/05/06 00:01:53;;;;;;;16.97;14.10;;;15.20;63.50;;;;;;5073099;28;20560;-68
2022/05/06 00:04:20;;;;;;;15.87;13.70;;;15.20;63.60;;;;;;5072995;28;20791;-68
2022/05/06 00:06:48;;;;;;;16.30;13.77;;;15.20;63.60;;;;;;5073523;28;20425;-67
2022/05/06 00:09:14;;;;;;;16.63;13.90;;;15.10;63.50;;;;;;5073516;28;20798;-67
2022/05/06 00:11:41;;;;;;;14.80;13.30;;;15.00;63.80;;;;;;5072866;28;20464;-68
2022/05/06 00:14:08;;;;;;;17.13;13.17;;;15.00;64.10;;;;;;5072996;28;20452;-68
2022/05/06 00:16:34;;;;;;;16.13;13.37;;;14.90;64.20;;;;;;5072969;28;20487;-68
2022/05/06 00:19:01;;;;;;;16.13;14.30;;;14.90;64.60;;;;;;5072866;28;20444;-68
2022/05/06 00:21:28;;;;;;;16.03;13.37;;;14.80;64.60;;;;;;5072491;28;20494;-68
2022/05/06 00:23:56;;;;;;;17.63;13.33;;;14.80;64.80;;;;;;5072910;28;20460;-68
2022/05/06 00:26:22;;;;;;;21.47;14.03;;;14.70;64.70;;;;;;5072527;28;20436;-67
2022/05/06 00:28:49;;;;;;;14.77;12.07;;;14.60;64.70;;;;;;5072917;28;20448;-67
2022/05/06 00:31:16;;;;;;;15.30;13.30;;;14.60;64.80;;;;;;5072763;28;20466;-67
2022/05/06 00:33:43;;;;;;;21.43;14.03;;;14.60;65.20;;;;;;5072989;28;20838;-68
2022/05/06 00:36:10;;;;;;;15.03;13.43;;;14.50;65.40;;;;;;5073095;28;20571;-67
2022/05/06 00:38:37;;;;;;;16.40;13.90;;;14.50;65.50;;;;;;5073257;28;20445;-67
2022/05/06 00:41:05;;;;;;;19.90;14.03;;;14.50;65.50;;;;;;5074544;28;20469;-68
2022/05/06 00:43:32;;;;;;;15.93;13.47;;;14.50;65.50;;;;;;5076509;28;20460;-68
2022/05/06 00:45:59;;;;;;;19.70;12.40;;;14.50;65.50;;;;;;5075894;28;20448;-68
2022/05/06 00:48:28;;;;;;;16.00;12.80;;;14.40;65.60;;;;;;5076302;28;20448;-68
2022/05/06 00:50:57;;;;;;;14.30;12.50;;;14.50;65.70;;;;;;5076141;28;20472;-68
2022/05/06 00:53:24;;;;;;;13.97;12.43;;;14.40;65.70;;;;;;5095669;28;20463;-68
2022/05/06 00:55:52;;;;;;;14.20;12.77;;;14.30;65.90;;;;;;5096163;28;20858;-68
2022/05/06 00:58:23;;;;;;;16.07;12.53;;;14.30;66.20;;;;;;5095978;28;20939;-67
2022/05/06 01:00:50;;;;;;;15.27;12.70;;;14.30;66.40;;;;;;5096126;28;20427;-68
2022/05/06 01:03:17;;;;;;;16.00;12.50;;;14.30;66.60;;;;;;5095930;28;20939;-68
2022/05/06 01:05:43;;;;;;;15.67;13.37;;;14.30;66.80;;;;;;5096247;28;20447;-68
2022/05/06 01:08:10;;;;;;;14.40;12.70;;;14.20;66.90;;;;;;5096164;28;20455;-68
2022/05/06 01:10:38;;;;;;;14.90;13.10;;;14.20;67.00;;;;;;5096013;28;20447;-68
2022/05/06 01:13:05;;;;;;;17.43;12.40;;;14.20;67.10;;;;;;5095628;28;20462;-68
2022/05/06 01:15:34;;;;;;;13.57;12.17;;;14.10;67.00;;;;;;5095913;28;20479;-68
2022/05/06 01:18:00;;;;;;;16.27;12.47;;;14.00;67.00;;;;;;5095958;28;20455;-68
2022/05/06 01:20:28;;;;;;;17.60;13.50;;;14.00;67.50;;;;;;5096048;28;20443;-68
2022/05/06 01:22:58;;;;;;;19.30;13.57;;;13.90;67.80;;;;;;5095774;28;20467;-68
2022/05/06 01:25:26;;;;;;;14.90;12.23;;;13.90;68.50;;;;;;5095589;28;20974;-68
2022/05/06 01:27:55;;;;;;;18.70;13.70;;;13.90;68.90;;;;;;5095899;28;20473;-68
2022/05/06 01:30:31;;;;;;;18.83;12.83;;;13.90;69.00;;;;;;5095709;28;20448;-68
2022/05/06 01:32:59;;;;;;;14.20;12.63;;;13.90;68.90;;;;;;5095649;28;20463;-68
2022/05/06 01:35:28;;;;;;;20.87;13.20;;;13.90;68.70;;;;;;5095608;28;20830;-67
2022/05/06 01:38:03;;;;;;;16.43;14.00;;;13.80;68.80;;;;;;5095516;28;20432;-68
2022/05/06 01:40:34;;;;;;;16.07;13.10;;;13.80;69.30;;;;;;5095474;28;20435;-68
2022/05/06 01:43:03;;;;;;;16.83;13.50;;;13.80;69.50;;;;;;5094892;28;20444;-67
2022/05/06 01:45:33;;;;;;;17.10;14.97;;;13.80;69.50;;;;;;5095320;28;20439;-67
2022/05/06 01:48:03;;;;;;;17.70;14.67;;;13.80;69.90;;;;;;5095385;28;20448;-68
2022/05/06 01:50:32;;;;;;;17.90;14.00;;;13.80;70.10;;;;;;5094944;28;20965;-68
2022/05/06 01:53:02;;;;;;;15.07;13.33;;;13.80;69.90;;;;;;5094028;28;20880;-68
2022/05/06 01:55:29;;;;;;;16.73;13.47;;;13.80;69.50;;;;;;5095080;28;20461;-68
2022/05/06 01:57:56;;;;;;;15.30;13.70;;;13.80;69.30;;;;;;5095214;28;20455;-68
2022/05/06 02:00:24;;;;;;;15.57;13.97;;;13.70;69.50;;;;;;5095272;28;20535;-68
2022/05/06 02:02:51;;;;;;;15.97;13.37;;;13.70;69.60;;;;;;5095168;28;20471;-68
2022/05/06 02:05:17;;;;;;;18.13;14.50;;;13.70;69.90;;;;;;5095089;28;20793;-68
2022/05/06 02:07:44;;;;;;;18.20;14.63;;;13.60;69.50;;;;;;5094910;28;20497;-68
2022/05/06 02:10:12;;;;;;;21.33;15.40;;;13.60;69.40;;;;;;5095051;28;20202;-68
2022/05/06 02:12:39;;;;;;;19.43;13.80;;;13.60;69.70;;;;;;5094569;28;20847;-67
2022/05/06 02:15:07;;;;;;;18.77;15.30;;;13.60;69.50;;;;;;5094984;28;20435;-67
2022/05/06 02:17:34;;;;;;;17.70;14.20;;;13.50;69.50;;;;;;5094561;28;20493;-67
2022/05/06 02:20:01;;;;;;;20.97;16.00;;;13.50;69.70;;;;;;5094619;28;20451;-68
2022/05/06 02:22:29;;;;;;;20.53;15.47;;;13.40;69.80;;;;;;5094449;28;20833;-68
2022/05/06 02:24:56;;;;;;;17.60;15.43;;;13.50;70.10;;;;;;5094205;28;20447;-68
2022/05/06 02:27:24;;;;;;;18.23;16.33;;;13.50;70.30;;;;;;5095361;28;20443;-68
2022/05/06 02:35:20;;;;;;;20.73;16.20;;;13.40;70.40;;;;;;5094369;28;20450;-68
2022/05/06 02:37:47;;;;;;;17.80;15.50;;;13.40;70.50;;;;;;5094286;28;20491;-68
2022/05/06 02:40:14;;;;;;;20.60;17.23;;;13.30;70.50;;;;;;5093922;28;20973;-68
2022/05/06 02:42:43;;;;;;;20.13;17.10;;;13.30;70.60;;;;;;5093832;28;21024;-68
2022/05/06 02:45:10;;;;;;;21.53;17.23;;;13.30;70.70;;;;;;5093903;28;20460;-68
2022/05/06 02:47:38;;;;;;;17.50;14.87;;;13.30;70.60;;;;;;5094051;28;20444;-70
2022/05/06 02:50:06;;;;;;;20.53;16.50;;;13.20;70.70;;;;;;5094040;28;20501;-70
2022/05/06 02:52:33;;;;;;;20.23;17.67;;;13.20;71.00;;;;;;5093922;28;20467;-70
2022/05/06 02:54:59;;;;;;;22.37;17.53;;;13.10;71.10;;;;;;5093679;28;20440;-70
2022/05/06 02:57:27;;;;;;;24.00;19.00;;;13.10;71.30;;;;;;5093967;28;20506;-70
2022/05/06 02:59:55;;;;;;;20.20;17.70;;;13.10;71.50;;;;;;5093563;28;20855;-70
2022/05/06 03:02:23;;;;;;;21.13;17.40;;;13.10;71.90;;;;;;5093838;28;20562;-70
2022/05/06 03:04:50;;;;;;;22.03;18.27;;;13.10;71.90;;;;;;5093736;28;20534;-70
2022/05/06 03:07:16;;;;;;;25.40;19.30;;;13.00;71.70;;;;;;5093838;28;20443;-70
2022/05/06 03:09:43;;;;;;;21.13;18.33;;;13.00;71.60;;;;;;5093724;28;20452;-70
2022/05/06 03:12:11;;;;;;;35.50;17.93;;;13.00;71.60;;;;;;5093425;28;21005;-70
2022/05/06 03:14:37;;;;;;;20.23;17.73;;;13.00;71.70;;;;;;5093676;28;20455;-70
2022/05/06 03:17:05;;;;;;;22.20;18.27;;;13.00;71.70;;;;;;5093327;28;20475;-70
2022/05/06 03:19:32;;;;;;;19.20;17.30;;;12.90;71.70;;;;;;5093709;28;20435;-70
2022/05/06 03:21:59;;;;;;;24.13;17.30;;;12.90;71.90;;;;;;5093605;28;20480;-69
2022/05/06 03:24:26;;;;;;;20.77;18.50;;;12.90;72.10;;;;;;5093574;28;20448;-70
2022/05/06 03:26:53;;;;;;;19.37;17.17;;;12.90;72.20;;;;;;5093396;28;20946;-70
2022/05/06 03:29:19;;;;;;;19.53;17.00;;;12.90;72.50;;;;;;5094099;28;20443;-70
2022/05/06 03:31:46;;;;;;;21.93;18.07;;;12.80;72.40;;;;;;5093144;28;20475;-70
2022/05/06 03:34:16;;;;;;;20.10;17.13;;;12.80;72.40;;;;;;5093544;28;20442;-70
2022/05/06 03:36:43;;;;;;;22.00;17.77;;;12.70;72.40;;;;;;5093069;28;20488;-70
2022/05/06 03:39:10;;;;;;;21.73;19.30;;;12.60;73.00;;;;;;5093381;28;20444;-70
2022/05/06 03:41:37;;;;;;;24.43;18.90;;;12.50;73.00;;;;;;5093166;28;20471;-70
2022/05/06 03:44:06;;;;;;;24.93;20.63;;;12.50;73.00;;;;;;5093174;28;20458;-70
2022/05/06 03:46:33;;;;;;;24.10;19.13;;;12.50;73.20;;;;;;5093430;28;20444;-70
2022/05/06 03:49:01;;;;;;;27.63;20.70;;;12.40;73.40;;;;;;5093280;28;20452;-70
2022/05/06 03:51:28;;;;;;;35.60;21.20;;;12.40;73.80;;;;;;5088904;28;20487;-70
2022/05/06 03:53:57;;;;;;;24.27;21.37;;;12.40;73.90;;;;;;5072720;28;20445;-70
2022/05/06 03:56:25;;;;;;;25.27;21.60;;;12.40;73.60;;;;;;5073089;28;20833;-70
2022/05/06 03:58:53;;;;;;;26.30;22.40;;;12.40;73.70;;;;;;5073172;28;20449;-70
2022/05/06 04:01:20;;;;;;;23.17;20.77;;;12.40;73.80;;;;;;5072995;28;20593;-70
2022/05/06 04:03:47;;;;;;;25.23;21.90;;;12.30;73.60;;;;;;5073119;28;20450;-70
2022/05/06 04:06:14;;;;;;;26.57;22.00;;;12.30;73.50;;;;;;5073122;28;20460;-70
2022/05/06 04:08:42;;;;;;;23.63;20.80;;;12.30;73.80;;;;;;5073006;28;20445;-70
2022/05/06 04:11:10;;;;;;;30.57;23.80;;;12.20;73.90;;;;;;5072943;28;20866;-70
2022/05/06 04:13:37;;;;;;;29.40;25.43;;;12.20;74.60;;;;;;5072884;28;20444;-70
2022/05/06 04:16:04;;;;;;;27.67;22.97;;;12.30;75.20;;;;;;5073804;28;20448;-70
2022/05/06 04:18:31;;;;;;;30.37;24.50;;;12.30;76.00;;;;;;5076787;28;20471;-70
2022/05/06 04:23:44;;;;;;;30.90;26.27;;;12.20;75.90;;;;;;5076476;28;20408;-70
2022/05/06 04:26:12;;;;;;;38.37;27.70;;;12.20;76.30;;;;;;5076637;28;20457;-70
2022/05/06 04:28:40;;;;;;;35.10;27.30;;;12.20;76.50;;;;;;5076816;28;20476;-69
2022/05/06 04:31:08;;;;;;;36.10;26.70;;;12.20;76.90;;;;;;5077010;28;20511;-70
2022/05/06 04:33:35;;;;;;;38.00;29.93;;;12.20;77.30;;;;;;5076746;28;20460;-70
2022/05/06 04:36:04;;;;;;;29.43;25.23;;;12.20;77.40;;;;;;5076687;28;20448;-70
2022/05/06 04:38:31;;;;;;;30.07;25.77;;;12.20;77.10;;;;;;5076188;28;20480;-70
2022/05/06 04:41:00;;;;;;;32.37;27.60;;;12.20;76.70;;;;;;5077521;28;20472;-69
2022/05/06 04:43:28;;;;;;;35.03;27.70;;;12.30;76.90;;;;;;5077411;28;20463;-70
2022/05/06 04:45:55;;;;;;;34.13;26.23;;;12.30;77.10;;;;;;5076388;28;20440;-69
2022/05/06 04:48:22;;;;;;;35.47;29.27;;;12.40;77.40;;;;;;5075239;28;20491;-70
2022/05/06 04:50:49;;;;;;;33.07;28.53;;;12.40;78.00;;;;;;5075909;28;20447;-70
2022/05/06 04:53:16;;;;;;;39.67;30.80;;;12.40;77.80;;;;;;5076425;28;20800;-70
2022/05/06 04:55:46;;;;;;;37.07;32.60;;;12.40;77.90;;;;;;5075959;28;20449;-70
2022/05/06 04:58:15;;;;;;;39.43;31.27;;;12.40;78.20;;;;;;5076090;28;20487;-70
2022/05/06 05:00:42;;;;;;;42.80;33.23;;;12.40;78.90;;;;;;5076122;28;20476;-70
2022/05/06 05:03:09;;;;;;;39.67;34.57;;;12.50;79.70;;;;;;5076056;28;20481;-70
2022/05/06 05:05:36;;;;;;;46.50;35.07;;;12.50;80.20;;;;;;5075986;28;20449;-69
2022/05/06 05:08:04;;;;;;;39.43;35.10;;;12.60;80.70;;;;;;5075890;28;20896;-70
2022/05/06 05:10:31;;;;;;;45.47;37.60;;;12.60;81.00;;;;;;5075776;28;20453;-70
2022/05/06 05:12:57;;;;;;;43.87;36.77;;;12.70;81.80;;;;;;5075620;28;20479;-70
2022/05/06 05:15:25;;;;;;;54.13;35.37;;;12.70;81.90;;;;;;5075954;28;20452;-70
2022/05/06 05:17:52;;;;;;;43.83;37.30;;;12.70;82.10;;;;;;5075671;28;20472;-70
2022/05/06 05:20:19;;;;;;;47.33;38.27;;;12.80;82.60;;;;;;5075754;28;20436;-70
2022/05/06 05:22:46;;;;;;;49.33;40.20;;;12.70;82.80;;;;;;5075631;28;20467;-70
2022/05/06 05:25:13;;;;;;;58.93;44.00;;;12.80;84.50;;;;;;5075426;28;20974;-69
2022/05/06 05:27:40;;;;;;;49.87;40.90;;;12.80;85.60;;;;;;5075490;28;20487;-70
2022/05/06 05:30:10;;;;;;;54.13;41.50;;;12.70;86.40;;;;;;5075433;28;20864;-69
2022/05/06 05:32:39;;;;;;;47.70;39.93;;;12.70;86.90;;;;;;5075392;28;20531;-69
2022/05/06 05:35:07;;;;;;;48.63;39.67;;;12.80;87.30;;;;;;5075510;28;20857;-70
2022/05/06 05:37:34;;;;;;;54.63;41.87;;;12.90;89.00;;;;;;5076033;28;20486;-69
2022/05/06 05:40:01;;;;;;;55.00;43.77;;;12.90;88.60;;;;;;5075295;28;20805;-70
2022/05/06 05:42:28;;;;;;;52.60;42.67;;;12.90;88.90;;;;;;5075258;28;20996;-70
2022/05/06 05:50:27;;;;;;;52.67;44.40;;;13.20;90.00;;;;;;5075305;28;20408;-67
2022/05/06 05:52:55;;;;;;;52.97;43.87;;;13.30;90.00;;;;;;5074822;28;20481;-67
2022/05/06 05:55:22;;;;;;;53.87;42.40;;;13.40;90.10;;;;;;5075120;28;20535;-67
2022/05/06 05:57:49;;;;;;;48.53;42.87;;;13.50;90.10;;;;;;5074784;28;20843;-67
2022/05/06 06:00:16;;;;;;;49.57;44.20;;;13.60;90.30;;;;;;5074870;28;20445;-67
2022/05/06 06:02:45;;;;;;;54.67;44.40;;;13.70;90.30;;;;;;5074796;28;20464;-67
2022/05/06 06:05:11;;;;;;;55.23;44.10;;;13.70;90.10;;;;;;5074696;28;20440;-67
2022/05/06 06:07:38;;;;;;;50.27;44.07;;;13.80;90.10;;;;;;5074829;28;20436;-67
2022/05/06 06:10:06;;;;;;;57.47;46.67;;;13.90;90.30;;;;;;5074644;28;20447;-67
2022/05/06 06:12:33;;;;;;;45.73;40.70;;;13.90;90.50;;;;;;5074500;28;20468;-68
2022/05/06 06:15:00;;;;;;;48.00;41.17;;;14.00;90.40;;;;;;5074237;28;20457;-67
2022/05/06 06:17:27;;;;;;;50.33;40.40;;;14.10;90.50;;;;;;5074501;28;20480;-68
2022/05/06 06:19:55;;;;;;;45.43;40.50;;;14.20;90.80;;;;;;5074574;28;20459;-68
2022/05/06 06:22:22;;;;;;;52.80;40.10;;;14.30;90.60;;;;;;5074105;28;21029;-68
2022/05/06 06:24:49;;;;;;;47.00;40.60;;;14.40;90.20;;;;;;5074363;28;20801;-68
2022/05/06 06:27:15;;;;;;;43.37;38.40;;;14.50;90.00;;;;;;5074319;28;20472;-67
2022/05/06 06:29:43;;;;;;;43.13;38.50;;;14.70;90.00;;;;;;5074329;28;20533;-67
2022/05/06 06:32:10;;;;;;;43.17;38.10;;;14.70;89.80;;;;;;5073829;28;20990;-67
2022/05/06 06:34:36;;;;;;;45.53;38.30;;;14.80;89.70;;;;;;5074309;28;20453;-67
2022/05/06 06:37:05;;;;;;;44.80;39.90;;;14.80;89.80;;;;;;5074011;28;20904;-68
2022/05/06 06:39:32;;;;;;;44.73;38.33;;;14.90;89.90;;;;;;5073537;28;20445;-68
2022/05/06 06:41:59;;;;;;;42.87;37.83;;;15.00;89.40;;;;;;5074035;28;20845;-67
2022/05/06 06:44:26;;;;;;;44.03;35.60;;;15.10;88.90;;;;;;5078142;28;20559;-66
2022/05/06 06:46:53;;;;;;;43.10;36.80;;;15.20;89.50;;;;;;5084898;28;20963;-66
2022/05/06 06:49:20;;;;;;;43.50;38.67;;;15.30;88.90;;;;;;5084307;28;20449;-68
2022/05/06 06:51:47;;;;;;;47.03;40.40;;;15.40;88.20;;;;;;5090045;28;20508;-66
2022/05/06 06:54:15;;;;;;;43.30;38.70;;;15.50;88.90;;;;;;5105132;28;20432;-66
2022/05/06 06:56:41;;;;;;;46.23;40.57;;;15.50;87.90;;;;;;5103109;28;20910;-67
2022/05/06 06:59:08;;;;;;;46.03;40.93;;;15.60;87.70;;;;;;5105079;28;20487;-67
2022/05/06 07:01:35;;;;;;;42.13;36.53;;;15.70;88.10;;;;;;5104742;28;20452;-66
2022/05/06 07:04:02;;;;;;;43.83;39.03;;;15.80;87.60;;;;;;5104136;28;20456;-67
2022/05/06 07:11:58;;;;;;;41.13;36.70;;;16.30;84.10;;;;;;5103258;28;20442;-66
2022/05/06 07:14:26;;;;;;;40.80;36.03;;;16.40;82.60;;;;;;5103649;28;20934;-66
2022/05/06 07:16:54;;;;;;;44.60;36.50;;;16.60;82.80;;;;;;5103692;28;20962;-69
2022/05/06 07:19:22;;;;;;;40.53;35.40;;;16.70;82.50;;;;;;5108340;28;20427;-67
2022/05/06 07:21:51;;;;;;;45.00;35.27;;;16.80;81.60;;;;;;5104682;28;20468;-68
2022/05/06 07:24:19;;;;;;;39.37;35.17;;;17.00;80.50;;;;;;5106098;28;20452;-67
2022/05/06 07:26:47;;;;;;;39.60;33.37;;;17.20;79.30;;;;;;5110217;28;20424;-66
2022/05/06 07:29:13;;;;;;;37.23;33.43;;;17.30;78.80;;;;;;5110501;28;20468;-67
2022/05/06 07:31:41;;;;;;;40.27;35.57;;;17.50;78.30;;;;;;5109960;28;20456;-67
2022/05/06 07:34:08;;;;;;;37.60;33.60;;;17.60;77.90;;;;;;5109884;28;20961;-68
2022/05/06 07:36:35;;;;;;;31.10;26.90;;;17.80;75.80;;;;;;5111160;28;20473;-69
2022/05/06 07:39:02;;;;;;;37.33;33.60;;;18.00;74.00;;;;;;5112689;28;20478;-70
2022/05/06 07:41:30;;;;;;;31.97;28.60;;;18.30;73.50;;;;;;5111449;28;20468;-69
2022/05/06 07:43:57;;;;;;;39.77;35.00;;;18.50;73.30;;;;;;5111173;28;20474;-70
2022/05/06 07:46:25;;;;;;;42.30;35.87;;;18.80;71.00;;;;;;5111683;28;20439;-70
2022/05/06 07:48:52;;;;;;;44.43;38.23;;;19.00;71.50;;;;;;5111400;28;20473;-70
2022/05/06 07:51:18;;;;;;;41.83;37.23;;;19.20;70.00;;;;;;5112065;28;20470;-70
2022/05/06 07:53:45;;;;;;;43.53;38.70;;;19.10;70.00;;;;;;5115654;28;20444;-70
2022/05/06 07:56:12;;;;;;;40.30;33.70;;;19.20;70.30;;;;;;5113083;28;20867;-69
2022/05/06 07:58:40;;;;;;;38.47;33.80;;;19.40;69.50;;;;;;5113857;28;20459;-69
2022/05/06 08:01:07;;;;;;;43.07;36.60;;;19.60;68.60;;;;;;5112074;28;20993;-69
2022/05/06 08:06:18;;;;;;;48.50;38.70;;;20.00;67.30;;;;;;5099352;28;20403;-70
2022/05/06 08:08:45;;;;;;;44.53;37.17;;;20.10;65.90;;;;;;5099253;28;20443;-68
2022/05/06 08:11:12;;;;;;;37.93;31.60;;;20.10;65.20;;;;;;5098982;28;20478;-70
2022/05/06 08:13:40;;;;;;;49.73;40.20;;;20.20;61.90;;;;;;5102767;28;20451;-69
2022/05/06 08:16:07;;;;;;;58.57;41.27;;;20.20;64.30;;;;;;5098081;28;20949;-66
2022/05/06 08:18:33;;;;;;;46.60;40.00;;;20.20;64.50;;;;;;5096391;28;20489;-66
2022/05/06 08:21:00;;;;;;;40.80;34.90;;;20.10;64.70;;;;;;5096860;28;20938;-66
2022/05/06 08:23:27;;;;;;;47.67;37.33;;;20.20;64.20;;;;;;5097171;28;20504;-66
2022/05/06 08:25:54;;;;;;;48.77;41.87;;;20.40;63.20;;;;;;5097445;28;20455;-67
2022/05/06 08:28:22;;;;;;;52.67;39.57;;;20.60;63.30;;;;;;5097020;28;20482;-65
2022/05/06 08:30:51;;;;;;;51.87;41.67;;;20.70;64.30;;;;;;5096852;28;20450;-66
2022/05/06 08:33:19;;;;;;;42.23;35.43;;;20.80;63.80;;;;;;5096911;28;20547;-66
2022/05/06 08:35:46;;;;;;;44.03;39.27;;;20.90;62.70;;;;;;5097068;28;20439;-67
2022/05/06 08:38:15;;;;;;;50.00;38.80;;;21.00;63.50;;;;;;5097022;28;20505;-66
2022/05/06 08:40:42;;;;;;;40.43;35.97;;;20.90;61.00;;;;;;5096556;28;20455;-66
2022/05/06 08:43:09;;;;;;;42.50;34.37;;;21.00;62.40;;;;;;5096278;28;20464;-66
2022/05/06 08:51:11;;;;;;;40.93;36.40;;;22.00;58.10;;;;;;5095411;28;20443;-66
2022/05/06 08:53:39;;;;;;;41.30;35.27;;;22.20;58.10;;;;;;5095413;28;20797;-66
2022/05/06 08:56:06;;;;;;;33.37;29.83;;;22.30;57.60;;;;;;5095538;28;20555;-66
2022/05/06 08:58:36;;;;;;;46.47;41.57;;;22.50;57.20;;;;;;5095155;28;20483;-66
2022/05/06 09:01:07;;;;;;;46.20;38.43;;;22.60;57.50;;;;;;5095950;28;20467;-66
2022/05/06 09:03:38;;;;;;;47.37;38.30;;;22.60;57.00;;;;;;5095100;28;20771;-67
2022/05/06 09:06:05;;;;;;;40.00;35.90;;;22.60;57.50;;;;;;5095030;28;20806;-66
2022/05/06 09:08:37;;;;;;;38.63;34.10;;;22.50;57.20;;;;;;5095225;28;20439;-66
2022/05/06 09:11:07;;;;;;;39.97;33.97;;;22.60;56.60;;;;;;5094943;28;20907;-66
2022/05/06 09:13:35;;;;;;;38.33;34.53;;;22.80;57.20;;;;;;5095417;28;20493;-66
2022/05/06 09:19:25;;;;;;;36.60;33.00;;;22.80;55.30;;;;;;5094725;28;20454;-66
2022/05/06 09:22:11;;;;;;;36.17;32.50;;;22.90;55.50;;;;;;5094761;28;20471;-67
2022/05/06 09:24:39;;;;;;;31.27;28.07;;;23.00;55.50;;;;;;5094922;28;20435;-66
2022/05/06 09:27:08;;;;;;;35.53;31.47;;;23.30;56.20;;;;;;5094955;28;20452;-66
2022/05/06 09:29:37;;;;;;;32.60;29.30;;;23.50;55.50;;;;;;5094821;28;20448;-66
2022/05/06 09:32:19;;;;;;;32.50;29.13;;;23.60;52.60;;;;;;5094918;28;20467;-66
2022/05/06 09:34:49;;;;;;;30.57;27.47;;;23.70;53.10;;;;;;5094914;28;20440;-67
2022/05/06 09:37:37;;;;;;;33.00;27.90;;;23.80;53.10;;;;;;5095450;28;20432;-66
2022/05/06 09:40:09;;;;;;;31.40;28.07;;;24.00;52.00;;;;;;5095158;28;20507;-66
2022/05/06 09:42:38;;;;;;;23.77;21.27;;;24.10;50.60;;;;;;5095373;28;20824;-66
2022/05/06 09:45:05;;;;;;;26.53;23.37;;;24.20;50.60;;;;;;5049168;28;1338249;-67
2022/05/06 09:47:33;;;;;;;28.07;25.10;;;24.40;49.90;;;;;;5095465;28;20205;-67
2022/05/06 09:50:02;;;;;;;27.77;24.80;;;24.70;48.70;;;;;;5095617;28;20450;-66
2022/05/06 09:52:29;;;;;;;25.40;22.83;;;24.90;47.50;;;;;;5094133;28;20502;-66
2022/05/06 09:54:56;;;;;;;27.30;24.57;;;25.20;46.70;;;;;;5095674;28;20448;-68
2022/05/06 09:57:23;;;;;;;27.50;23.77;;;25.50;45.70;;;;;;5095036;28;20484;-69
2022/05/06 09:59:51;;;;;;;28.67;25.70;;;25.50;44.90;;;;;;5097292;28;20504;-71
2022/05/06 10:02:19;;;;;;;31.13;28.13;;;25.60;44.80;;;;;;5096683;28;20507;-69
2022/05/06 10:04:47;;;;;;;28.40;24.77;;;25.70;45.40;;;;;;5095632;28;20455;-68
2022/05/06 10:07:17;;;;;;;24.13;21.53;;;26.00;43.80;;;;;;5095514;28;20448;-67
2022/05/06 10:09:53;;;;;;;29.80;27.03;;;26.40;42.60;;;;;;5095823;28;20800;-67
2022/05/06 10:12:22;;;;;;;31.23;28.13;;;26.80;40.50;;;;;;5095088;28;20981;-68
2022/05/06 10:14:49;;;;;;;30.27;27.60;;;27.10;41.60;;;;;;5094690;28;20444;-69
2022/05/06 10:17:46;;;;;;;31.63;28.40;;;27.50;40.70;;;;;;5095079;28;20947;-67
2022/05/06 10:20:33;;;;;;;31.73;28.50;;;28.00;40.80;;;;;;5093024;28;20483;-66
2022/05/06 10:23:02;;;;;;;30.17;27.47;;;28.30;39.10;;;;;;5094423;28;20500;-68
2022/05/06 10:25:48;;;;;;;26.50;23.70;;;28.50;38.10;;;;;;5094972;28;20455;-68
2022/05/06 10:34:29;;;;;;;35.00;31.57;;;30.30;34.90;;;;;;5094466;28;20419;-68
2022/05/06 10:36:58;;;;;;;34.83;31.57;;;30.50;33.90;;;;;;5094623;28;20435;-68
2022/05/06 10:39:28;;;;;;;34.60;31.30;;;30.80;33.50;;;;;;5094201;28;21013;-68
2022/05/06 10:42:06;;;;;;;28.37;25.63;;;30.70;32.90;;;;;;5094654;28;20482;-68
2022/05/06 10:44:38;;;;;;;30.27;27.63;;;30.10;33.00;;;;;;5094135;28;20486;-68
2022/05/06 10:47:43;;;;;;;31.43;28.30;;;29.50;33.60;;;;;;5094519;28;20440;-68
2022/05/06 10:50:15;;;;;;;29.47;26.50;;;28.80;34.80;;;;;;5093838;28;20448;-69
2022/05/06 10:52:45;;;;;;;31.77;28.63;;;28.10;36.30;;;;;;5093704;28;20986;-67
2022/05/06 10:55:19;;;;;;;32.20;28.90;;;27.60;37.50;;;;;;5093960;28;20457;-67
2022/05/06 10:57:52;;;;;;;35.70;32.33;;;27.10;38.30;;;;;;5094085;28;20428;-68
2022/05/06 11:00:21;;;;;;;34.50;31.17;;;26.40;39.10;;;;;;5093988;28;20473;-68
2022/05/06 11:02:48;;;;;;;36.53;33.03;;;25.80;40.90;;;;;;5093623;28;20463;-67
2022/05/06 11:05:17;;;;;;;34.53;30.90;;;25.30;42.10;;;;;;5093967;28;20448;-68
2022/05/06 11:07:45;;;;;;;33.10;29.63;;;25.00;43.00;;;;;;5094093;28;20443;-68
2022/05/06 11:10:16;;;;;;;33.93;30.57;;;24.70;44.00;;;;;;5094126;28;20444;-67
2022/05/06 11:12:45;;;;;;;33.10;29.70;;;24.50;44.50;;;;;;5095418;28;20596;-69
2022/05/06 11:15:14;;;;;;;32.00;28.60;;;24.40;44.80;;;;;;5094037;28;20456;-70
2022/05/06 11:17:41;;;;;;;27.27;24.67;;;24.30;45.50;;;;;;5094106;28;20471;-70
2022/05/06 11:20:17;;;;;;;25.57;22.93;;;24.30;45.20;;;;;;5094092;28;20864;-69
2022/05/06 11:22:55;;;;;;;30.60;27.33;;;24.40;45.50;;;;;;5093781;28;20877;-69
2022/05/06 11:25:25;;;;;;;29.57;26.37;;;24.60;45.30;;;;;;5093356;28;20911;-70
2022/05/06 11:27:53;;;;;;;32.77;29.57;;;25.50;44.40;;;;;;5095676;28;20981;-70
2022/05/06 11:30:21;;;;;;;33.80;28.93;;;26.10;42.40;;;;;;5093719;28;20452;-69
2022/05/06 11:32:50;;;;;;;27.47;24.70;;;26.90;41.90;;;;;;5093894;28;20467;-70
2022/05/06 11:35:21;;;;;;;22.20;20.20;;;28.00;40.10;;;;;;5093855;28;20471;-70
2022/05/06 11:37:48;;;;;;;26.93;24.47;;;29.40;38.00;;;;;;5095388;28;20809;-72
2022/05/06 11:40:37;;;;;;;27.10;24.47;;;30.90;30.90;;;;;;5096223;28;20855;-67
2022/05/06 11:43:18;;;;;;;25.47;23.00;;;31.90;29.20;;;;;;5094787;28;20458;-68
2022/05/06 11:48:31;;;;;;;27.10;24.47;;;32.60;28.60;;;;;;5094960;28;20449;-66
2022/05/06 11:51:00;;;;;;;25.80;23.50;;;32.70;28.80;;;;;;5094879;28;20869;-66
2022/05/06 11:53:28;;;;;;;28.47;25.90;;;32.90;27.90;;;;;;5094626;28;20450;-67
2022/05/06 11:55:56;;;;;;;26.47;23.70;;;33.20;28.10;;;;;;5094135;28;20439;-67
2022/05/06 11:58:25;;;;;;;27.10;24.73;;;33.20;27.80;;;;;;5093827;28;20942;-66
2022/05/06 12:00:53;;;;;;;31.77;28.80;;;32.90;27.40;;;;;;5095076;28;20784;-66
2022/05/06 12:03:21;;;;;;;28.57;25.93;;;32.70;27.60;;;;;;5094746;28;20479;-66
2022/05/06 12:06:01;;;;;;;25.77;23.27;;;32.30;27.70;;;;;;5095045;28;20447;-68
2022/05/06 12:08:31;;;;;;;26.53;24.00;;;31.60;28.40;;;;;;5093862;28;20462;-66
2022/05/06 12:11:04;;;;;;;24.53;22.00;;;31.20;29.30;;;;;;5093923;28;20467;-67
2022/05/06 12:13:41;;;;;;;25.87;23.53;;;31.10;30.00;;;;;;5093387;28;20813;-66
2022/05/06 12:16:10;;;;;;;26.20;24.00;;;31.70;29.30;;;;;;5093825;28;20442;-66
2022/05/06 12:18:38;;;;;;;21.60;19.63;;;32.60;29.00;;;;;;5094336;28;20431;-66
2022/05/06 12:21:22;;;;;;;24.90;22.50;;;33.50;28.50;;;;;;5094432;28;20537;-66
2022/05/06 12:23:54;;;;;;;29.70;26.90;;;34.30;26.70;;;;;;5094115;28;20470;-66
2022/05/06 12:26:36;;;;;;;26.80;24.30;;;34.30;25.80;;;;;;5093753;28;20443;-66
2022/05/06 12:29:05;;;;;;;23.90;21.70;;;33.60;26.40;;;;;;5093921;28;20419;-69
2022/05/06 12:31:33;;;;;;;24.27;21.77;;;33.00;27.30;;;;;;5093015;28;20472;-68
2022/05/06 12:34:07;;;;;;;22.07;20.10;;;33.20;27.90;;;;;;5093019;28;20462;-68
2022/05/06 12:36:35;;;;;;;19.83;18.23;;;34.10;27.10;;;;;;5092886;28;20427;-69
2022/05/06 12:39:17;;;;;;;24.20;21.90;;;35.20;25.90;;;;;;5096675;28;20483;-69
2022/05/06 12:41:46;;;;;;;25.83;23.33;;;36.40;24.20;;;;;;5104104;28;20467;-68
2022/05/06 12:44:18;;;;;;;23.70;21.60;;;37.10;22.30;;;;;;5105186;28;20459;-68
2022/05/06 12:46:45;;;;;;;20.60;18.80;;;37.60;22.00;;;;;;5107448;28;20208;-68
2022/05/06 12:51:56;;;;;;;19.08;17.48;;;38.30;20.60;;;;;;5093000;28;20228;-67
2022/05/06 12:54:23;;;;;;;15.85;14.48;;;38.40;20.20;;;;;;5081285;28;20202;-67
2022/05/06 12:56:51;;;;;;;21.58;19.67;;;38.80;19.80;;;;;;5083376;28;20201;-69
2022/05/06 12:59:18;;;;;;;18.40;16.80;;;39.20;18.70;;;;;;5082640;28;20214;-68
2022/05/06 13:01:45;;;;;;;19.98;18.38;;;39.30;19.50;;;;;;5081617;28;20220;-68
2022/05/06 13:04:11;;;;;;;18.30;16.80;;;39.80;19.20;;;;;;5080539;28;20592;-68
2022/05/06 13:06:38;;;;;;;14.32;13.00;;;40.30;18.60;;;;;;5079075;28;20239;-68
2022/05/06 13:09:05;;;;;;;16.45;14.95;;;40.40;18.60;;;;;;5082521;28;20209;-68
2022/05/06 13:11:31;;;;;;;17.50;15.02;;;40.20;18.80;;;;;;5085993;28;20221;-68
2022/05/06 13:14:00;;;;;;;14.00;12.60;;;39.90;18.40;;;;;;5084097;28;20198;-68
2022/05/06 13:16:27;;;;;;;10.32;9.40;;;40.00;18.80;;;;;;5080298;28;20192;-68
2022/05/06 13:18:54;;;;;;;9.65;8.85;;;40.30;17.50;;;;;;5077472;28;20228;-67